Time;durP1;ratioP1;P1;durP2;ratioP2;P2;SDS_P1;SDS_P2;PMS_P1;PMS_P2;Temp;Humidity;BMP_temperature;BMP_pressure;BME280_temperature;BME280_humidity;BME280_pressure;Samples;Min_cycle;Max_cycle;Signal;HPM_P1;HPM_P2
2022/06/03 06:16:46;;;;;;;4.70;2.85;;;;;;;;;;1790934;80;23554;-75
2022/06/03 06:19:36;;;;;;;3.02;2.62;;;;;;;;;;1723111;81;21047;-75
2022/06/03 06:22:17;;;;;;;5.40;2.47;;;;;;;;;;1679508;85;21076;-75
2022/06/03 06:24:44;;;;;;;3.30;2.77;;;;;;;;;;1707256;83;21055;-75
2022/06/03 06:27:24;;;;;;;3.50;2.72;;;;;;;;;;1701340;82;21039;-75
2022/06/03 06:30:05;;;;;;;5.95;2.90;;;;;;;;;;1718203;83;21035;-75
2022/06/03 06:32:33;;;;;;;3.25;2.62;;;;;;;;;;1700758;83;21086;-75
2022/06/03 06:35:18;;;;;;;3.20;2.50;;;;;;;;;;1698033;84;21083;-74
2022/06/03 06:37:49;;;;;;;4.12;2.60;;;;;;;;;;1697756;84;21562;-74
2022/06/03 06:40:20;;;;;;;5.00;2.75;;;;;;;;;;1697949;84;21079;-74
2022/06/03 06:42:54;;;;;;;2.72;2.35;;;;;;;;;;1690443;84;21055;-74
2022/06/03 06:45:28;;;;;;;6.87;2.30;;;;;;;;;;1697273;84;21617;-74
2022/06/03 06:47:56;;;;;;;2.83;2.50;;;;;;;;;;1697865;84;21141;-76
2022/06/03 06:50:25;;;;;;;2.77;2.20;;;;;;;;;;1697872;84;21491;-75
2022/06/03 06:53:02;;;;;;;2.62;2.30;;;;;;;;;;1697780;84;21039;-75
2022/06/03 06:55:33;;;;;;;2.90;2.20;;;;;;;;;;1698120;84;21095;-74
2022/06/03 06:58:01;;;;;;;3.00;2.17;;;;;;;;;;1699787;83;21000;-74
2022/06/03 07:03:34;;;;;;;2.47;2.20;;;;;;;;;;1673647;82;21138;-74
2022/06/03 07:06:08;;;;;;;3.17;2.10;;;;;;;;;;1757322;82;21056;-74
2022/06/03 07:08:42;;;;;;;2.70;1.95;;;;;;;;;;1741631;82;21112;-73
2022/06/03 07:11:09;;;;;;;3.05;2.40;;;;;;;;;;1728430;83;20992;-74
2022/06/03 07:13:53;;;;;;;2.80;2.10;;;;;;;;;;1724034;83;20997;-74
2022/06/03 07:19:49;;;;;;;2.45;2.25;;;;;;;;;;1723704;83;21021;-75
2022/06/03 07:22:17;;;;;;;3.22;2.10;;;;;;;;;;1739851;81;21023;-73
2022/06/03 07:24:55;;;;;;;2.10;1.90;;;;;;;;;;1727515;83;21044;-76
2022/06/03 07:27:23;;;;;;;1.92;1.80;;;;;;;;;;1727749;83;21566;-75
2022/06/03 07:29:50;;;;;;;2.85;1.82;;;;;;;;;;1726914;83;21008;-73
2022/06/03 07:32:20;;;;;;;3.90;2.20;;;;;;;;;;1718362;83;20993;-74
2022/06/03 07:34:49;;;;;;;2.80;2.00;;;;;;;;;;1700193;83;21075;-74
2022/06/03 07:37:17;;;;;;;2.02;1.75;;;;;;;;;;1718355;83;21555;-74
2022/06/03 07:39:50;;;;;;;3.12;2.00;;;;;;;;;;1700119;84;21052;-73
2022/06/03 07:42:27;;;;;;;2.20;1.82;;;;;;;;;;1717439;83;21407;-74
2022/06/03 07:45:13;;;;;;;4.95;2.22;;;;;;;;;;1731323;81;21051;-74
2022/06/03 07:47:39;;;;;;;3.33;1.90;;;;;;;;;;1788267;80;20996;-74
2022/06/03 07:50:07;;;;;;;2.05;1.80;;;;;;;;;;1785636;80;21049;-74
2022/06/03 07:52:35;;;;;;;2.37;2.00;;;;;;;;;;1734141;82;22243;-74
2022/06/03 07:55:10;;;;;;;2.02;1.77;;;;;;;;;;1753010;82;21537;-74
2022/06/03 07:57:36;;;;;;;2.10;1.90;;;;;;;;;;1726672;83;21092;-74
2022/06/03 08:00:05;;;;;;;2.10;1.90;;;;;;;;;;1766624;80;21028;-74
2022/06/03 08:02:31;;;;;;;2.15;1.95;;;;;;;;;;1784802;80;21023;-74
2022/06/03 08:05:02;;;;;;;3.77;2.00;;;;;;;;;;1771782;81;21082;-74
2022/06/03 08:13:04;;;;;;;3.00;2.10;;;;;;;;;;1711699;84;21055;-74
2022/06/03 08:15:38;;;;;;;2.20;2.00;;;;;;;;;;1712190;84;21649;-75
2022/06/03 08:18:05;;;;;;;;;;;;;;;;;;1714640;84;20995;-74
2022/06/03 08:20:36;;;;;;;2.75;1.85;;;;;;;;;;1711948;84;20151;-75
2022/06/03 08:23:03;;;;;;;2.30;2.10;;;;;;;;;;1712173;84;21090;-76
2022/06/03 08:25:30;;;;;;;2.15;1.95;;;;;;;;;;1711685;84;21114;-75
2022/06/03 08:27:56;;;;;;;2.40;2.20;;;;;;;;;;1711835;84;21061;-75
2022/06/03 08:30:24;;;;;;;4.87;3.47;;;;;;;;;;1711767;84;21522;-75
2022/06/03 08:32:53;;;;;;;4.03;2.58;;;;;;;;;;1712018;84;21087;-76
2022/06/03 08:35:20;;;;;;;5.42;4.25;;;;;;;;;;1711915;84;21678;-75
2022/06/03 08:37:49;;;;;;;4.78;3.50;;;;;;;;;;1711928;84;21034;-75
2022/06/03 08:40:17;;;;;;;4.90;3.72;;;;;;;;;;1711611;84;21099;-75
2022/06/03 08:42:46;;;;;;;4.45;3.47;;;;;;;;;;1712123;84;20992;-75
2022/06/03 08:45:23;;;;;;;4.45;2.33;;;;;;;;;;1711817;83;21062;-76
2022/06/03 08:47:55;;;;;;;2.25;1.95;;;;;;;;;;1711810;84;21578;-75
2022/06/03 08:50:32;;;;;;;2.98;2.15;;;;;;;;;;1711924;84;21062;-75
2022/06/03 08:53:06;;;;;;;3.05;2.25;;;;;;;;;;1712011;84;21035;-74
2022/06/03 08:55:48;;;;;;;3.05;2.33;;;;;;;;;;1725787;82;21095;-75
2022/06/03 08:58:16;;;;;;;2.80;2.37;;;;;;;;;;1733474;82;21007;-74
2022/06/03 09:00:53;;;;;;;4.78;2.50;;;;;;;;;;1741575;82;21574;-75
2022/06/03 09:03:19;;;;;;;3.95;2.22;;;;;;;;;;1740934;82;21074;-75
2022/06/03 09:05:49;;;;;;;4.67;3.10;;;;;;;;;;1739892;82;21084;-75
2022/06/03 09:08:17;;;;;;;2.90;2.40;;;;;;;;;;1738182;82;21579;-75
2022/06/03 09:10:45;;;;;;;2.95;2.27;;;;;;;;;;1740411;82;21061;-75
2022/06/03 09:13:13;;;;;;;2.00;1.80;;;;;;;;;;1740679;82;21556;-73
2022/06/03 09:15:40;;;;;;;2.83;2.10;;;;;;;;;;1737179;82;21049;-75
2022/06/03 09:18:19;;;;;;;2.30;2.10;;;;;;;;;;1740215;82;21017;-75
2022/06/03 09:20:56;;;;;;;3.42;2.10;;;;;;;;;;1738102;82;21073;-75
2022/06/03 09:23:22;;;;;;;2.35;2.15;;;;;;;;;;1699118;83;21017;-75
2022/06/03 09:25:49;;;;;;;3.50;2.00;;;;;;;;;;1739901;82;21003;-74
2022/06/03 09:28:33;;;;;;;3.17;2.08;;;;;;;;;;1718790;82;21091;-75
2022/06/03 09:31:00;;;;;;;5.22;3.67;;;;;;;;;;1712474;82;21044;-73
2022/06/03 09:33:27;;;;;;;5.15;3.85;;;;;;;;;;1711872;82;21061;-74
2022/06/03 09:35:54;;;;;;;4.83;3.55;;;;;;;;;;1716762;82;21048;-74
2022/06/03 09:38:23;;;;;;;3.15;2.70;;;;;;;;;;1692329;84;21048;-74
2022/06/03 09:40:49;;;;;;;3.00;2.40;;;;;;;;;;1711954;82;21041;-74
2022/06/03 09:43:16;;;;;;;2.70;2.05;;;;;;;;;;1716562;82;21123;-74
2022/06/03 09:45:46;;;;;;;2.58;1.98;;;;;;;;;;1739732;82;21615;-75
2022/06/03 09:48:13;;;;;;;4.30;2.75;;;;;;;;;;1739978;82;21148;-74
2022/06/03 09:50:39;;;;;;;4.12;2.02;;;;;;;;;;1733004;82;21107;-75
2022/06/03 09:53:07;;;;;;;15.68;8.18;;;;;;;;;;1688599;85;21105;-75
2022/06/03 09:55:35;;;;;;;8.28;4.67;;;;;;;;;;1682174;85;21549;-75
2022/06/03 09:58:03;;;;;;;8.15;4.62;;;;;;;;;;1688736;85;21062;-75
2022/06/03 10:00:31;;;;;;;5.50;3.50;;;;;;;;;;1682073;85;21056;-74
2022/06/03 10:02:58;;;;;;;4.33;2.42;;;;;;;;;;1695696;83;21045;-74
2022/06/03 10:05:24;;;;;;;4.33;2.12;;;;;;;;;;1671559;84;21134;-74
2022/06/03 10:07:52;;;;;;;3.98;2.40;;;;;;;;;;1702871;84;21527;-75
2022/06/03 10:13:04;;;;;;;3.90;3.22;;;;;;;;;;1709692;84;21041;-74
2022/06/03 10:15:44;;;;;;;3.40;2.60;;;;;;;;;;1708744;84;21016;-74
2022/06/03 10:18:15;;;;;;;5.17;3.30;;;;;;;;;;1659728;85;21076;-74
2022/06/03 10:20:43;;;;;;;3.80;2.70;;;;;;;;;;1655311;85;21102;-75
2022/06/03 10:23:09;;;;;;;2.50;2.00;;;;;;;;;;1682479;85;21085;-74
2022/06/03 10:25:37;;;;;;;3.35;2.67;;;;;;;;;;1683220;85;21081;-75
2022/06/03 10:28:04;;;;;;;3.98;2.37;;;;;;;;;;1683298;84;21592;-75
2022/06/03 10:30:32;;;;;;;4.03;2.30;;;;;;;;;;1725787;82;20995;-74
2022/06/03 10:32:57;;;;;;;3.85;2.40;;;;;;;;;;1709439;84;21017;-75
2022/06/03 10:35:28;;;;;;;2.25;2.05;;;;;;;;;;1678825;85;21043;-74
2022/06/03 10:37:55;;;;;;;2.52;2.30;;;;;;;;;;1680064;84;21101;-73
2022/06/03 10:40:24;;;;;;;3.52;2.10;;;;;;;;;;1698552;84;21607;-73
2022/06/03 10:42:54;;;;;;;3.87;2.05;;;;;;;;;;1670996;86;20995;-72
2022/06/03 10:45:28;;;;;;;2.50;2.00;;;;;;;;;;1676152;84;21077;-73
2022/06/03 10:47:54;;;;;;;3.10;2.25;;;;;;;;;;1689666;84;21098;-73
2022/06/03 10:50:28;;;;;;;3.05;2.30;;;;;;;;;;1692293;84;21062;-73
2022/06/03 11:01:33;;;;;;;3.17;2.33;;;;;;;;;;1688102;82;21057;-75
2022/06/03 11:03:59;;;;;;;2.52;2.30;;;;;;;;;;1690487;84;21120;-73
2022/06/03 11:06:29;;;;;;;2.92;2.25;;;;;;;;;;1688805;85;21105;-75
2022/06/03 11:08:58;;;;;;;2.40;2.20;;;;;;;;;;1688347;85;21046;-74
2022/06/03 11:11:35;;;;;;;2.65;2.40;;;;;;;;;;1689042;85;21003;-75
2022/06/03 11:14:21;;;;;;;3.90;2.30;;;;;;;;;;1688996;85;21050;-74
2022/06/03 11:16:51;;;;;;;2.45;2.15;;;;;;;;;;1689009;85;21020;-73
2022/06/03 11:19:19;;;;;;;3.05;2.20;;;;;;;;;;1708088;83;21032;-74
2022/06/03 11:21:45;;;;;;;2.30;2.10;;;;;;;;;;1710448;84;21061;-74
2022/06/03 11:24:12;;;;;;;2.70;2.22;;;;;;;;;;1710659;84;21121;-75
2022/06/03 11:26:39;;;;;;;3.33;2.30;;;;;;;;;;1710908;84;21061;-74
2022/06/03 11:29:13;;;;;;;2.58;2.20;;;;;;;;;;1691449;84;21056;-74
2022/06/03 11:31:41;;;;;;;2.22;2.02;;;;;;;;;;1710921;84;21529;-75
2022/06/03 11:34:09;;;;;;;3.08;2.40;;;;;;;;;;1710734;84;21624;-74
2022/06/03 11:36:38;;;;;;;2.60;2.10;;;;;;;;;;1710826;84;21584;-74
2022/06/03 11:39:06;;;;;;;2.98;2.30;;;;;;;;;;1687479;85;21553;-74
2022/06/03 11:41:37;;;;;;;2.95;2.10;;;;;;;;;;1734454;82;21065;-75
2022/06/03 11:44:07;;;;;;;2.22;2.02;;;;;;;;;;1738525;82;21030;-74
2022/06/03 11:46:37;;;;;;;2.45;2.25;;;;;;;;;;1738641;82;21102;-75
2022/06/03 11:49:04;;;;;;;3.75;2.40;;;;;;;;;;1738684;82;21061;-75
2022/06/03 11:51:31;;;;;;;2.42;2.22;;;;;;;;;;1738952;82;21041;-74
2022/06/03 11:53:57;;;;;;;2.50;2.20;;;;;;;;;;1740097;82;21584;-75
2022/06/03 11:56:23;;;;;;;2.10;1.90;;;;;;;;;;1740277;82;21072;-75
2022/06/03 11:58:54;;;;;;;3.20;2.42;;;;;;;;;;1740086;82;21100;-75
2022/06/03 12:01:25;;;;;;;4.22;2.30;;;;;;;;;;1740012;82;21037;-74
2022/06/03 12:03:55;;;;;;;2.40;2.10;;;;;;;;;;1739463;81;21058;-74
2022/06/03 12:06:23;;;;;;;4.83;2.35;;;;;;;;;;1739925;82;21060;-75
2022/06/03 12:08:55;;;;;;;2.83;2.25;;;;;;;;;;1739397;82;20982;-74
2022/06/03 12:14:25;;;;;;;2.67;2.17;;;;;;;;;;1738377;82;21065;-75
2022/06/03 12:16:55;;;;;;;2.85;2.17;;;;;;;;;;1734311;81;21053;-74
2022/06/03 12:19:22;;;;;;;2.55;2.30;;;;;;;;;;1727109;82;21057;-75
2022/06/03 12:21:50;;;;;;;3.30;2.30;;;;;;;;;;1695437;82;21508;-74
2022/06/03 12:24:26;;;;;;;3.15;2.40;;;;;;;;;;1699960;82;21624;-75
2022/06/03 12:26:53;;;;;;;4.25;2.35;;;;;;;;;;1695832;82;21078;-75
2022/06/03 12:29:27;;;;;;;3.33;2.27;;;;;;;;;;1714286;82;21108;-75
2022/06/03 12:31:54;;;;;;;2.40;2.20;;;;;;;;;;1711852;83;21578;-74
2022/06/03 12:34:24;;;;;;;4.47;2.40;;;;;;;;;;1739302;82;21001;-75
2022/06/03 12:37:00;;;;;;;3.17;2.70;;;;;;;;;;1713317;82;21076;-75
2022/06/03 12:39:34;;;;;;;2.60;2.40;;;;;;;;;;1701284;83;20967;-74
2022/06/03 12:42:03;;;;;;;2.62;2.20;;;;;;;;;;1736004;82;22180;-75
2022/06/03 12:44:33;;;;;;;2.22;2.02;;;;;;;;;;1712588;82;21049;-75
2022/06/03 12:47:21;;;;;;;3.90;2.40;;;;;;;;;;1710583;82;21076;-74
2022/06/03 12:49:48;;;;;;;2.50;2.30;;;;;;;;;;1736055;82;20954;-75
2022/06/03 12:52:21;;;;;;;2.47;2.20;;;;;;;;;;1739929;82;21093;-75
2022/06/03 12:54:50;;;;;;;2.90;2.20;;;;;;;;;;1727010;82;21013;-74
2022/06/03 12:57:27;;;;;;;3.58;2.20;;;;;;;;;;1703916;82;21089;-74
2022/06/03 13:00:04;;;;;;;2.92;2.10;;;;;;;;;;1725422;82;21017;-75
2022/06/03 13:02:32;;;;;;;2.58;2.15;;;;;;;;;;1733429;82;21073;-75
2022/06/03 13:04:59;;;;;;;2.67;2.30;;;;;;;;;;1716819;82;21025;-75
2022/06/03 13:07:27;;;;;;;2.70;2.27;;;;;;;;;;1714471;82;21193;-75
2022/06/03 13:09:56;;;;;;;3.47;2.10;;;;;;;;;;1739834;82;21045;-74
2022/06/03 13:12:23;;;;;;;2.40;2.20;;;;;;;;;;1740089;82;21516;-74
2022/06/03 13:14:50;;;;;;;3.05;2.27;;;;;;;;;;1739350;82;21096;-74
2022/06/03 13:17:36;;;;;;;2.80;2.50;;;;;;;;;;1740147;82;21049;-74
2022/06/03 13:20:02;;;;;;;2.80;2.30;;;;;;;;;;1731013;82;21017;-75
2022/06/03 13:22:29;;;;;;;2.77;2.33;;;;;;;;;;1710731;84;21045;-74
2022/06/03 13:25:16;;;;;;;3.95;2.40;;;;;;;;;;1710531;84;21041;-75
2022/06/03 13:28:01;;;;;;;3.22;2.22;;;;;;;;;;1690361;83;21027;-75
2022/06/03 13:30:34;;;;;;;2.90;2.22;;;;;;;;;;1725722;82;21044;-74
2022/06/03 13:33:03;;;;;;;2.52;2.33;;;;;;;;;;1740034;82;21108;-74
2022/06/03 13:35:31;;;;;;;2.87;2.40;;;;;;;;;;1712059;82;21065;-75
2022/06/03 13:37:59;;;;;;;2.40;2.20;;;;;;;;;;1688801;85;21066;-75
2022/06/03 13:40:29;;;;;;;2.65;2.30;;;;;;;;;;1695585;83;22115;-74
2022/06/03 13:43:00;;;;;;;2.50;2.10;;;;;;;;;;1710626;83;21069;-75
2022/06/03 13:45:45;;;;;;;2.83;2.22;;;;;;;;;;1710524;84;21076;-75
2022/06/03 13:48:22;;;;;;;2.33;2.12;;;;;;;;;;1710647;84;21084;-75
2022/06/03 13:50:48;;;;;;;2.55;2.35;;;;;;;;;;1712236;82;21001;-74
2022/06/03 13:53:16;;;;;;;2.37;2.17;;;;;;;;;;1695163;83;21057;-74
2022/06/03 13:55:44;;;;;;;2.52;2.30;;;;;;;;;;1736125;82;21025;-74
2022/06/03 13:58:12;;;;;;;3.37;2.60;;;;;;;;;;1718583;82;21792;-75
2022/06/03 14:00:53;;;;;;;2.85;2.30;;;;;;;;;;1720062;82;21049;-74
2022/06/03 14:03:22;;;;;;;3.12;2.30;;;;;;;;;;1737380;82;21136;-75
2022/06/03 14:05:53;;;;;;;2.95;2.40;;;;;;;;;;1710606;82;21084;-75
2022/06/03 14:08:21;;;;;;;2.62;2.35;;;;;;;;;;1732326;82;21085;-74
2022/06/03 14:10:49;;;;;;;2.60;2.25;;;;;;;;;;1738401;82;21077;-74
2022/06/03 14:13:18;;;;;;;2.58;2.35;;;;;;;;;;1710430;84;21544;-75
2022/06/03 14:15:58;;;;;;;2.50;2.30;;;;;;;;;;1712768;82;21055;-75
2022/06/03 14:18:43;;;;;;;3.85;2.20;;;;;;;;;;1712438;82;21037;-74
2022/06/03 14:21:09;;;;;;;2.92;2.30;;;;;;;;;;1712566;83;21007;-74
2022/06/03 14:23:37;;;;;;;2.30;2.10;;;;;;;;;;1721166;82;21037;-74
2022/06/03 14:26:22;;;;;;;2.55;2.33;;;;;;;;;;1739936;82;21041;-75
2022/06/03 14:28:56;;;;;;;3.00;2.45;;;;;;;;;;1740195;82;21082;-75
2022/06/03 14:31:30;;;;;;;3.47;2.52;;;;;;;;;;1716423;82;21036;-74
2022/06/03 14:33:58;;;;;;;3.15;2.47;;;;;;;;;;1719908;82;21076;-74
2022/06/03 14:36:25;;;;;;;2.60;2.37;;;;;;;;;;1711374;84;21088;-74
2022/06/03 14:38:52;;;;;;;3.55;2.37;;;;;;;;;;1710984;84;21076;-74
2022/06/03 14:41:22;;;;;;;2.52;2.33;;;;;;;;;;1710700;84;21509;-75
2022/06/03 14:43:47;;;;;;;2.55;2.35;;;;;;;;;;1712906;82;21536;-75
2022/06/03 14:46:19;;;;;;;2.70;2.37;;;;;;;;;;1710646;84;21045;-74
2022/06/03 14:48:47;;;;;;;2.95;2.50;;;;;;;;;;1710979;84;21009;-75
2022/06/03 14:51:34;;;;;;;3.15;2.55;;;;;;;;;;1713815;82;21505;-75
2022/06/03 14:54:02;;;;;;;2.80;2.52;;;;;;;;;;1735206;82;21042;-75
2022/06/03 14:56:30;;;;;;;2.98;2.42;;;;;;;;;;1740020;82;21544;-75
2022/06/03 14:58:57;;;;;;;3.30;2.30;;;;;;;;;;1740225;82;21504;-75
2022/06/03 15:01:25;;;;;;;2.62;2.30;;;;;;;;;;1729296;82;21064;-75
2022/06/03 15:03:58;;;;;;;2.80;2.30;;;;;;;;;;1688984;85;21030;-74
2022/06/03 15:06:25;;;;;;;2.62;2.42;;;;;;;;;;1682670;85;21016;-75
2022/06/03 15:08:53;;;;;;;2.60;2.40;;;;;;;;;;1683851;84;21023;-76
2022/06/03 15:11:29;;;;;;;3.33;2.47;;;;;;;;;;1683113;85;21052;-74
2022/06/03 15:13:55;;;;;;;2.65;2.40;;;;;;;;;;1682692;85;21013;-74
2022/06/03 15:16:22;;;;;;;2.90;2.47;;;;;;;;;;1682416;85;21072;-74
2022/06/03 15:18:49;;;;;;;3.08;2.40;;;;;;;;;;1697113;84;21498;-74
2022/06/03 15:21:23;;;;;;;2.70;2.33;;;;;;;;;;1684222;84;21071;-75
2022/06/03 15:23:48;;;;;;;;;;;;;;;;;;1685196;85;21052;-74
2022/06/03 15:26:15;;;;;;;2.60;2.20;;;;;;;;;;1682599;85;20112;-74
2022/06/03 15:28:44;;;;;;;2.92;2.40;;;;;;;;;;1682456;85;21087;-74
2022/06/03 15:31:15;;;;;;;3.02;2.35;;;;;;;;;;1683117;84;21102;-74
2022/06/03 15:33:42;;;;;;;2.30;2.10;;;;;;;;;;1697290;84;21016;-74
2022/06/03 15:36:12;;;;;;;2.95;2.45;;;;;;;;;;1711113;84;21562;-74
2022/06/03 15:38:41;;;;;;;2.72;2.17;;;;;;;;;;1710970;83;21095;-75
2022/06/03 15:41:08;;;;;;;2.17;1.92;;;;;;;;;;1711047;84;22111;-74
2022/06/03 15:43:37;;;;;;;3.70;2.20;;;;;;;;;;1676289;85;21040;-74
2022/06/03 15:46:03;;;;;;;3.15;2.30;;;;;;;;;;1699963;84;21061;-75
2022/06/03 15:48:30;;;;;;;2.87;2.40;;;;;;;;;;1682703;85;21016;-74
2022/06/03 15:51:03;;;;;;;3.80;2.10;;;;;;;;;;1687162;84;21045;-75
2022/06/03 15:53:32;;;;;;;3.40;2.08;;;;;;;;;;1741545;82;21039;-75
2022/06/03 15:56:03;;;;;;;3.37;2.35;;;;;;;;;;1736691;82;21027;-74
2022/06/03 15:58:37;;;;;;;2.77;2.40;;;;;;;;;;1725674;82;21019;-74
2022/06/03 16:01:15;;;;;;;3.42;2.22;;;;;;;;;;1722466;82;21050;-75
2022/06/03 16:03:43;;;;;;;2.37;2.17;;;;;;;;;;1701344;84;21129;-76
2022/06/03 16:06:12;;;;;;;2.83;2.50;;;;;;;;;;1698654;84;21090;-76
2022/06/03 16:08:58;;;;;;;3.77;2.40;;;;;;;;;;1672120;84;21101;-76
2022/06/03 16:11:31;;;;;;;3.30;2.35;;;;;;;;;;1728408;82;21086;-75
2022/06/03 16:14:17;;;;;;;2.58;2.10;;;;;;;;;;1712057;84;21039;-74
2022/06/03 16:16:48;;;;;;;2.98;2.27;;;;;;;;;;1711903;84;21054;-73
2022/06/03 16:19:18;;;;;;;2.90;2.42;;;;;;;;;;1712079;84;21045;-74
2022/06/03 16:22:03;;;;;;;2.40;2.00;;;;;;;;;;1714997;82;21068;-74
2022/06/03 16:24:36;;;;;;;4.10;2.60;;;;;;;;;;1738580;82;21078;-75
2022/06/03 16:27:09;;;;;;;2.45;2.25;;;;;;;;;;1728870;82;21024;-76
2022/06/03 16:29:42;;;;;;;2.47;2.27;;;;;;;;;;1736297;82;21023;-75
2022/06/03 16:32:21;;;;;;;3.10;2.30;;;;;;;;;;1740701;82;21075;-75
2022/06/03 16:35:08;;;;;;;3.00;2.40;;;;;;;;;;1729324;82;21035;-75
2022/06/03 16:37:36;;;;;;;2.50;2.15;;;;;;;;;;1738978;82;21090;-75
2022/06/03 16:40:06;;;;;;;3.00;2.00;;;;;;;;;;1729207;82;21087;-76
2022/06/03 16:42:43;;;;;;;2.60;2.30;;;;;;;;;;1728592;82;21518;-75
2022/06/03 16:48:01;;;;;;;2.62;2.40;;;;;;;;;;1728495;82;21003;-76
2022/06/03 16:50:28;;;;;;;3.40;2.15;;;;;;;;;;1728062;82;22019;-76
2022/06/03 16:52:56;;;;;;;2.60;2.30;;;;;;;;;;1725400;82;21050;-75
2022/06/03 16:55:30;;;;;;;2.90;2.40;;;;;;;;;;1723613;82;20992;-76
2022/06/03 16:57:56;;;;;;;;;;;;;;;;;;1726787;82;21050;-76
2022/06/03 17:00:22;;;;;;;2.55;2.20;;;;;;;;;;1724895;82;20507;-75
2022/06/03 17:02:51;;;;;;;2.90;2.30;;;;;;;;;;1714065;82;21075;-76
2022/06/03 17:05:19;;;;;;;3.27;2.30;;;;;;;;;;1713810;82;21062;-75
2022/06/03 17:07:46;;;;;;;2.60;2.40;;;;;;;;;;1711861;84;21147;-75
2022/06/03 17:10:12;;;;;;;4.92;2.52;;;;;;;;;;1712019;84;21562;-73
2022/06/03 17:12:40;;;;;;;4.17;2.42;;;;;;;;;;1690854;82;21061;-72
2022/06/03 17:15:06;;;;;;;2.55;2.30;;;;;;;;;;1730647;82;21035;-75
2022/06/03 17:17:34;;;;;;;2.90;2.37;;;;;;;;;;1726580;82;21074;-75
2022/06/03 17:20:04;;;;;;;3.67;2.35;;;;;;;;;;1711968;84;21035;-75
2022/06/03 17:22:32;;;;;;;3.37;2.58;;;;;;;;;;1719505;82;21556;-75
2022/06/03 17:25:17;;;;;;;2.70;2.35;;;;;;;;;;1739401;82;21023;-75
2022/06/03 17:27:48;;;;;;;3.22;2.60;;;;;;;;;;1741443;82;21008;-76
2022/06/03 17:30:15;;;;;;;2.87;2.55;;;;;;;;;;1741416;82;21011;-75
2022/06/03 17:32:46;;;;;;;3.17;2.55;;;;;;;;;;1741136;82;21050;-76
2022/06/03 17:35:26;;;;;;;3.15;2.45;;;;;;;;;;1739377;82;21007;-75
2022/06/03 17:38:00;;;;;;;2.80;2.40;;;;;;;;;;1741119;82;21019;-74
2022/06/03 17:40:45;;;;;;;2.87;2.58;;;;;;;;;;1740924;82;21543;-75
2022/06/03 17:43:29;;;;;;;3.33;2.75;;;;;;;;;;1732608;82;21094;-75
2022/06/03 17:46:00;;;;;;;4.05;2.47;;;;;;;;;;1711904;84;21031;-75
2022/06/03 17:48:28;;;;;;;3.30;2.98;;;;;;;;;;1727035;82;21072;-75
2022/06/03 17:50:59;;;;;;;5.08;2.77;;;;;;;;;;1741453;82;21043;-75
2022/06/03 17:56:35;;;;;;;5.47;2.65;;;;;;;;;;1711969;84;21510;-75
2022/06/03 17:59:09;;;;;;;9.45;3.00;;;;;;;;;;1736673;81;20999;-75
2022/06/03 18:01:45;;;;;;;4.17;2.92;;;;;;;;;;1734220;81;21102;-75
2022/06/03 18:04:16;;;;;;;5.10;2.80;;;;;;;;;;1722481;82;21590;-75
2022/06/03 18:06:52;;;;;;;3.85;2.90;;;;;;;;;;1735533;82;21105;-75
2022/06/03 18:09:26;;;;;;;6.12;2.77;;;;;;;;;;1717997;82;21035;-75
2022/06/03 18:11:53;;;;;;;3.70;2.75;;;;;;;;;;1732235;82;21103;-75
2022/06/03 18:14:22;;;;;;;4.72;2.90;;;;;;;;;;1737462;82;21576;-75
2022/06/03 18:16:57;;;;;;;4.80;2.95;;;;;;;;;;1717789;82;21565;-75
2022/06/03 18:19:25;;;;;;;3.45;3.00;;;;;;;;;;1730559;82;21139;-74
2022/06/03 18:23:24;;;;;;;2.87;2.62;;;;;;;;;;1822630;78;22582;-75
2022/06/03 18:26:01;;;;;;;4.55;2.80;;;;;;;;;;1780932;80;21092;-74
2022/06/03 18:28:38;;;;;;;6.12;2.65;;;;;;;;;;1761946;80;21618;-74
2022/06/03 18:31:21;;;;;;;4.22;2.90;;;;;;;;;;1776370;80;21079;-75
2022/06/03 18:33:49;;;;;;;13.65;3.37;;;;;;;;;;1762588;80;21005;-75
2022/06/03 18:36:33;;;;;;;13.62;3.62;;;;;;;;;;1762033;80;21051;-75
2022/06/03 18:39:19;;;;;;;6.75;3.20;;;;;;;;;;1784051;80;21011;-76
2022/06/03 18:41:54;;;;;;;6.58;3.27;;;;;;;;;;1770957;80;21076;-75
2022/06/03 18:44:27;;;;;;;6.42;3.67;;;;;;;;;;1761930;80;21040;-75
2022/06/03 18:46:55;;;;;;;11.35;8.08;;;;;;;;;;1762003;80;21075;-76
2022/06/03 18:49:23;;;;;;;10.08;6.95;;;;;;;;;;1773282;80;21024;-75
2022/06/03 18:51:54;;;;;;;7.53;5.62;;;;;;;;;;1774195;80;21076;-75
2022/06/03 18:54:34;;;;;;;7.72;5.42;;;;;;;;;;1732570;81;21499;-75
2022/06/03 18:57:06;;;;;;;12.98;7.17;;;;;;;;;;1719717;83;21064;-75
2022/06/03 18:59:44;;;;;;;10.80;7.97;;;;;;;;;;1694351;84;21104;-76
2022/06/03 19:02:15;;;;;;;13.05;8.58;;;;;;;;;;1691954;84;21148;-76
2022/06/03 19:05:00;;;;;;;12.00;8.20;;;;;;;;;;1677635;85;21537;-76
2022/06/03 19:07:45;;;;;;;12.65;8.58;;;;;;;;;;1700896;84;21131;-76
2022/06/03 19:10:13;;;;;;;12.60;8.40;;;;;;;;;;1700846;84;21028;-75
2022/06/03 19:13:02;;;;;;;10.85;8.05;;;;;;;;;;1693711;84;21091;-76
2022/06/03 19:15:40;;;;;;;10.88;8.48;;;;;;;;;;1701266;84;21545;-76
2022/06/03 19:18:09;;;;;;;11.60;8.13;;;;;;;;;;1700953;84;21100;-76
2022/06/03 19:20:40;;;;;;;13.25;9.18;;;;;;;;;;1701041;84;21085;-75
2022/06/03 19:23:11;;;;;;;10.98;8.73;;;;;;;;;;1680343;84;21620;-76
2022/06/03 19:25:40;;;;;;;12.35;9.98;;;;;;;;;;1682043;85;21085;-75
2022/06/03 19:28:11;;;;;;;19.67;14.45;;;;;;;;;;1675566;85;21086;-76
2022/06/03 19:30:37;;;;;;;22.50;14.00;;;;;;;;;;1675233;85;21030;-76
2022/06/03 19:33:07;;;;;;;24.40;14.53;;;;;;;;;;1681820;85;21045;-78
2022/06/03 19:35:35;;;;;;;37.48;22.73;;;;;;;;;;1675689;86;21070;-75
2022/06/03 19:38:05;;;;;;;29.63;19.75;;;;;;;;;;1681361;85;21117;-76
2022/06/03 19:40:50;;;;;;;33.05;19.57;;;;;;;;;;1675830;85;20991;-75
2022/06/03 19:43:27;;;;;;;29.95;19.17;;;;;;;;;;1680005;85;21067;-75
2022/06/03 19:45:58;;;;;;;25.70;17.40;;;;;;;;;;1675991;85;21524;-74
2022/06/03 19:48:26;;;;;;;23.20;14.68;;;;;;;;;;1678631;85;21058;-75
2022/06/03 19:50:56;;;;;;;25.60;15.88;;;;;;;;;;1720738;83;21192;-76
2022/06/03 19:53:26;;;;;;;22.70;13.55;;;;;;;;;;1721354;83;21063;-76
2022/06/03 19:55:54;;;;;;;21.93;12.93;;;;;;;;;;1719579;83;21056;-76
2022/06/03 19:58:25;;;;;;;20.45;14.15;;;;;;;;;;1681894;83;21060;-76
2022/06/03 20:00:51;;;;;;;18.40;13.10;;;;;;;;;;1718344;83;21072;-76
2022/06/03 20:03:19;;;;;;;21.05;13.68;;;;;;;;;;1715619;82;21005;-75
2022/06/03 20:05:50;;;;;;;20.77;14.15;;;;;;;;;;1731715;82;21088;-76
2022/06/03 20:08:18;;;;;;;21.15;13.75;;;;;;;;;;1714749;84;21590;-77
2022/06/03 20:10:53;;;;;;;17.95;13.50;;;;;;;;;;1717810;82;21610;-76
2022/06/03 20:13:22;;;;;;;19.75;12.80;;;;;;;;;;1714734;84;21025;-76
2022/06/03 20:16:03;;;;;;;18.00;11.80;;;;;;;;;;1720042;82;21849;-75
2022/06/03 20:18:33;;;;;;;16.25;11.83;;;;;;;;;;1722052;82;21118;-77
2022/06/03 20:21:02;;;;;;;14.28;10.68;;;;;;;;;;1722227;83;21593;-76
2022/06/03 20:23:29;;;;;;;13.32;10.28;;;;;;;;;;1693057;84;21660;-75
2022/06/03 20:25:58;;;;;;;11.18;8.78;;;;;;;;;;1667854;85;21590;-76
2022/06/03 20:28:27;;;;;;;9.78;7.87;;;;;;;;;;1695881;84;21020;-77
2022/06/03 20:30:56;;;;;;;9.15;7.70;;;;;;;;;;1696041;84;21614;-75
2022/06/03 20:33:24;;;;;;;11.70;7.37;;;;;;;;;;1694686;84;21402;-76
2022/06/03 20:35:52;;;;;;;8.70;7.42;;;;;;;;;;1696405;84;21075;-76
2022/06/03 20:38:29;;;;;;;10.45;7.78;;;;;;;;;;1687881;84;21135;-77
2022/06/03 20:40:58;;;;;;;12.47;7.75;;;;;;;;;;1696047;84;21585;-77
2022/06/03 20:43:27;;;;;;;12.37;7.58;;;;;;;;;;1705429;83;21044;-75
2022/06/03 20:45:56;;;;;;;8.45;7.08;;;;;;;;;;1669561;84;21155;-75
2022/06/03 20:48:24;;;;;;;10.35;7.45;;;;;;;;;;1677797;85;21650;-73
2022/06/03 20:50:59;;;;;;;9.83;7.10;;;;;;;;;;1673999;85;21124;-75
2022/06/03 20:53:27;;;;;;;9.73;7.10;;;;;;;;;;1721334;83;21104;-75
2022/06/03 20:56:05;;;;;;;8.75;6.78;;;;;;;;;;1718058;83;21058;-75
2022/06/03 20:58:32;;;;;;;8.20;6.35;;;;;;;;;;1667938;86;21090;-74
2022/06/03 21:01:00;;;;;;;11.08;7.08;;;;;;;;;;1696179;84;21083;-74
2022/06/03 21:14:28;;;;;;;11.35;6.85;;;;;;;;;;1690949;84;21024;-75
2022/06/03 21:16:55;;;;;;;8.83;6.45;;;;;;;;;;1691406;85;21031;-74
2022/06/03 21:19:21;;;;;;;8.18;6.60;;;;;;;;;;1674873;85;21102;-74
2022/06/03 21:21:58;;;;;;;11.65;7.25;;;;;;;;;;1690635;84;21086;-75
2022/06/03 21:24:29;;;;;;;12.37;9.33;;;;;;;;;;1722536;83;21047;-74
2022/06/03 21:26:54;;;;;;;14.63;8.08;;;;;;;;;;1720723;83;21052;-74
2022/06/03 21:29:21;;;;;;;13.83;8.98;;;;;;;;;;1725974;82;20994;-74
2022/06/03 21:32:07;;;;;;;13.15;9.05;;;;;;;;;;1715755;82;21513;-74
2022/06/03 21:34:41;;;;;;;13.93;9.65;;;;;;;;;;1725828;82;21536;-75
2022/06/03 21:37:18;;;;;;;17.67;9.70;;;;;;;;;;1709753;82;21030;-74
2022/06/03 21:39:46;;;;;;;15.00;9.60;;;;;;;;;;1734832;82;21057;-75
2022/06/03 21:42:13;;;;;;;14.80;9.60;;;;;;;;;;1710737;82;21049;-75
2022/06/03 21:44:43;;;;;;;15.20;9.30;;;;;;;;;;1651373;86;20981;-75
2022/06/03 21:47:11;;;;;;;14.28;9.33;;;;;;;;;;1727588;82;21014;-74
2022/06/03 21:49:42;;;;;;;14.95;10.13;;;;;;;;;;1733309;82;21603;-75
2022/06/03 21:52:16;;;;;;;13.40;8.93;;;;;;;;;;1739147;82;21076;-75
2022/06/03 21:54:53;;;;;;;11.22;8.45;;;;;;;;;;1716944;82;21544;-74
2022/06/03 21:57:20;;;;;;;11.15;7.92;;;;;;;;;;1731654;82;20986;-75
2022/06/03 21:59:52;;;;;;;11.38;7.90;;;;;;;;;;1723736;82;21556;-76
2022/06/03 22:02:18;;;;;;;12.68;8.18;;;;;;;;;;1719976;82;21077;-74
2022/06/03 22:04:45;;;;;;;9.70;7.95;;;;;;;;;;1728481;82;21567;-75